Time;durP1;ratioP1;P1;durP2;ratioP2;P2;SDS_P1;SDS_P2;PMS_P1;PMS_P2;Temp;Humidity;BMP_temperature;BMP_pressure;BME280_temperature;BME280_humidity;BME280_pressure;Samples;Min_cycle;Max_cycle;Signal;HPM_P1;HPM_P2
2023/09/30 00:02:22;;;;;;;9.57;2.03;;;11.90;99.90;;;;;;5078055;28;20028;-53
2023/09/30 00:04:48;;;;;;;6.68;2.22;;;11.90;99.90;;;;;;5075944;28;20388;-50
2023/09/30 00:07:13;;;;;;;9.18;2.70;;;11.90;99.90;;;;;;5078334;28;20024;-53
2023/09/30 00:09:40;;;;;;;8.13;2.38;;;12.00;99.90;;;;;;5081609;28;20020;-53
2023/09/30 00:12:06;;;;;;;8.52;2.47;;;12.00;99.90;;;;;;5077172;28;20047;-50
2023/09/30 00:14:32;;;;;;;10.30;2.47;;;12.10;99.90;;;;;;5076161;28;20038;-52
2023/09/30 00:16:57;;;;;;;7.57;2.95;;;12.10;99.90;;;;;;5076090;28;20185;-52
2023/09/30 00:19:23;;;;;;;6.50;2.50;;;12.00;99.90;;;;;;5075458;28;20072;-54
2023/09/30 00:21:49;;;;;;;11.88;2.90;;;12.00;99.90;;;;;;5076332;28;20025;-54
2023/09/30 00:24:14;;;;;;;7.22;2.40;;;12.00;99.90;;;;;;5078100;28;20047;-52
2023/09/30 00:26:40;;;;;;;10.02;2.60;;;11.90;99.90;;;;;;5076773;28;20035;-53
2023/09/30 00:29:06;;;;;;;10.23;2.33;;;12.00;99.90;;;;;;5059055;28;20078;-52
2023/09/30 00:31:32;;;;;;;9.90;3.08;;;12.00;99.90;;;;;;5088998;28;20036;-51
2023/09/30 00:33:58;;;;;;;7.72;2.45;;;12.00;99.90;;;;;;5063241;28;20393;-53
2023/09/30 00:36:23;;;;;;;13.93;2.92;;;12.00;99.90;;;;;;5077297;28;20035;-50
2023/09/30 00:38:49;;;;;;;10.10;2.90;;;12.00;99.90;;;;;;5075023;28;20139;-53
2023/09/30 00:41:14;;;;;;;9.38;3.13;;;12.00;99.90;;;;;;5063389;28;20032;-52
2023/09/30 00:43:41;;;;;;;9.55;3.22;;;12.10;99.90;;;;;;5066561;28;20111;-51
2023/09/30 00:46:11;;;;;;;9.93;3.00;;;12.20;99.90;;;;;;5060201;28;20505;-50
2023/09/30 00:48:37;;;;;;;10.40;2.95;;;12.20;99.90;;;;;;5073055;28;20032;-50
2023/09/30 00:51:03;;;;;;;8.48;2.72;;;12.20;99.90;;;;;;5069610;28;20040;-51
2023/09/30 00:53:29;;;;;;;10.55;3.22;;;12.30;99.90;;;;;;5043912;28;20407;-50
2023/09/30 00:55:56;;;;;;;7.72;2.90;;;12.40;99.90;;;;;;5063792;28;20128;-50
2023/09/30 00:58:27;;;;;;;10.55;3.28;;;12.40;99.90;;;;;;5066109;28;20546;-53
2023/09/30 01:00:53;;;;;;;11.20;3.45;;;12.50;99.90;;;;;;5058096;28;20036;-50
2023/09/30 01:03:19;;;;;;;10.30;3.55;;;12.50;99.90;;;;;;5060806;28;20388;-53
2023/09/30 01:05:45;;;;;;;10.57;2.75;;;12.50;99.90;;;;;;5063565;28;20021;-53
2023/09/30 01:08:11;;;;;;;12.02;3.63;;;12.50;99.90;;;;;;5064982;28;20025;-53
2023/09/30 01:10:37;;;;;;;10.90;3.05;;;12.50;99.90;;;;;;5082430;28;20085;-54
2023/09/30 01:13:02;;;;;;;10.52;2.80;;;12.40;99.90;;;;;;5076808;28;20032;-54
2023/09/30 01:15:29;;;;;;;7.88;3.05;;;12.30;99.90;;;;;;5060733;28;20425;-50
2023/09/30 01:17:55;;;;;;;12.25;3.38;;;12.40;99.90;;;;;;5057867;28;20059;-54
2023/09/30 01:20:23;;;;;;;6.93;2.53;;;12.30;99.90;;;;;;5079428;28;20059;-52
2023/09/30 01:22:49;;;;;;;10.10;3.07;;;12.30;99.90;;;;;;5067827;28;20381;-51
2023/09/30 01:25:15;;;;;;;12.52;3.92;;;12.30;99.90;;;;;;5060317;28;20739;-51
2023/09/30 01:27:40;;;;;;;8.18;3.42;;;12.30;99.90;;;;;;5058623;28;20042;-50
2023/09/30 01:30:10;;;;;;;11.65;3.85;;;12.40;99.90;;;;;;5058985;28;20024;-52
2023/09/30 01:32:37;;;;;;;8.98;2.67;;;12.40;99.90;;;;;;5064696;28;20476;-50
2023/09/30 01:35:03;;;;;;;7.82;2.63;;;12.30;99.90;;;;;;5058795;28;20484;-53
2023/09/30 01:37:28;;;;;;;7.93;2.78;;;12.30;99.90;;;;;;5079067;28;20036;-51
2023/09/30 01:39:55;;;;;;;9.45;3.40;;;12.20;99.90;;;;;;5076144;28;20044;-51
2023/09/30 01:42:21;;;;;;;9.18;2.95;;;12.20;99.90;;;;;;5079430;28;20447;-52
2023/09/30 01:44:46;;;;;;;11.05;3.00;;;12.20;99.90;;;;;;5076553;28;20043;-50
2023/09/30 01:47:12;;;;;;;11.30;3.17;;;12.20;99.90;;;;;;5065188;28;20096;-54
2023/09/30 01:49:38;;;;;;;11.77;3.40;;;12.30;99.90;;;;;;5087276;28;20054;-50
2023/09/30 01:52:03;;;;;;;9.20;3.10;;;12.30;99.90;;;;;;5059156;28;20467;-51
2023/09/30 01:54:29;;;;;;;10.95;3.17;;;12.30;99.90;;;;;;5060924;28;20028;-53
2023/09/30 01:56:55;;;;;;;9.45;3.80;;;12.20;99.90;;;;;;5081538;28;20392;-53
2023/09/30 01:59:21;;;;;;;14.20;3.63;;;12.30;99.90;;;;;;5079225;28;20115;-51
2023/09/30 02:01:47;;;;;;;11.18;3.70;;;12.30;99.90;;;;;;5058867;28;20150;-50
2023/09/30 02:04:15;;;;;;;11.68;3.45;;;12.20;99.90;;;;;;5065035;28;20042;-50
2023/09/30 02:06:43;;;;;;;7.72;3.08;;;12.20;99.90;;;;;;5060219;28;20111;-54
2023/09/30 02:09:09;;;;;;;12.07;3.70;;;12.20;99.90;;;;;;5060035;28;20040;-53
2023/09/30 02:11:36;;;;;;;12.70;4.15;;;12.10;99.90;;;;;;5065579;28;20119;-52
2023/09/30 02:14:02;;;;;;;13.20;3.58;;;12.10;99.90;;;;;;5063970;28;20028;-50
2023/09/30 02:16:28;;;;;;;8.60;2.92;;;12.00;99.90;;;;;;5062088;28;20056;-53
2023/09/30 02:18:55;;;;;;;12.18;3.42;;;12.00;99.90;;;;;;5081227;28;20044;-53
2023/09/30 02:21:24;;;;;;;7.63;2.90;;;12.10;99.90;;;;;;5062159;28;20016;-53
2023/09/30 02:23:50;;;;;;;9.53;3.63;;;12.00;99.90;;;;;;5059094;28;20028;-54
2023/09/30 02:26:17;;;;;;;7.43;2.90;;;12.00;99.90;;;;;;5053998;28;20441;-53
2023/09/30 02:28:43;;;;;;;11.95;3.00;;;11.90;99.90;;;;;;5084882;28;20043;-51
2023/09/30 02:31:08;;;;;;;7.22;3.10;;;11.90;99.90;;;;;;5063023;28;20037;-54
2023/09/30 02:33:38;;;;;;;8.70;3.35;;;11.90;99.90;;;;;;5079553;28;20024;-53
2023/09/30 02:36:08;;;;;;;9.80;3.35;;;12.00;99.90;;;;;;5060113;28;20040;-50
2023/09/30 02:38:36;;;;;;;7.45;2.90;;;12.00;99.90;;;;;;5069246;28;20032;-53
2023/09/30 02:41:02;;;;;;;11.50;3.80;;;12.00;99.90;;;;;;5088689;28;20125;-50
2023/09/30 02:43:28;;;;;;;12.05;3.40;;;11.90;99.90;;;;;;5066142;28;20048;-50
2023/09/30 02:45:55;;;;;;;8.05;3.33;;;11.90;99.90;;;;;;5063024;28;20473;-51
2023/09/30 02:48:21;;;;;;;9.43;2.80;;;11.90;99.90;;;;;;5069926;28;20035;-49
2023/09/30 02:50:46;;;;;;;9.20;3.72;;;11.90;99.90;;;;;;5080047;28;20019;-54
2023/09/30 02:53:13;;;;;;;9.55;3.55;;;11.90;99.90;;;;;;5070310;28;20480;-53
2023/09/30 02:55:39;;;;;;;12.25;2.92;;;11.90;99.90;;;;;;5083839;28;20041;-54
2023/09/30 02:58:05;;;;;;;8.52;3.00;;;11.90;99.90;;;;;;5068006;28;20448;-51
2023/09/30 03:00:32;;;;;;;7.47;3.22;;;11.90;99.90;;;;;;5066036;28;20276;-52
2023/09/30 03:03:01;;;;;;;7.13;3.03;;;11.90;99.90;;;;;;5081236;28;20101;-49
2023/09/30 03:05:30;;;;;;;11.18;2.90;;;11.90;99.90;;;;;;5070518;28;20028;-49
2023/09/30 03:07:56;;;;;;;6.47;2.55;;;12.00;99.90;;;;;;5084016;28;20036;-52
2023/09/30 03:10:23;;;;;;;11.18;3.15;;;12.00;99.90;;;;;;5076122;28;20051;-52
2023/09/30 03:12:50;;;;;;;9.73;2.97;;;12.10;99.90;;;;;;5082483;28;20027;-50
2023/09/30 03:15:16;;;;;;;14.45;4.07;;;11.90;99.90;;;;;;5080737;28;20032;-49
2023/09/30 03:17:42;;;;;;;8.48;3.00;;;11.90;99.90;;;;;;5077587;28;20070;-50
2023/09/30 03:20:12;;;;;;;12.20;3.23;;;11.90;99.90;;;;;;5081325;28;20067;-52
2023/09/30 03:22:42;;;;;;;7.68;3.13;;;11.90;99.90;;;;;;5075750;28;20047;-53
2023/09/30 03:25:09;;;;;;;8.03;3.10;;;11.90;99.90;;;;;;5079133;28;20039;-49
2023/09/30 03:27:36;;;;;;;11.03;3.70;;;11.80;99.90;;;;;;5079899;28;20111;-51
2023/09/30 03:30:05;;;;;;;9.70;2.88;;;11.70;99.90;;;;;;5081999;28;20036;-49
2023/09/30 03:32:33;;;;;;;7.83;2.73;;;11.60;99.90;;;;;;5078919;28;20424;-49
2023/09/30 03:35:00;;;;;;;9.83;3.10;;;11.60;99.90;;;;;;5078710;28;20036;-49
2023/09/30 03:37:27;;;;;;;12.18;3.63;;;11.70;99.90;;;;;;5078883;28;20565;-49
2023/09/30 03:39:55;;;;;;;9.23;3.13;;;11.70;99.90;;;;;;5081152;28;20526;-51
2023/09/30 03:42:21;;;;;;;12.93;3.42;;;11.70;99.90;;;;;;5074973;28;20043;-49
2023/09/30 03:44:48;;;;;;;10.13;3.83;;;11.60;99.90;;;;;;5074187;28;20158;-52
2023/09/30 03:47:19;;;;;;;10.07;3.53;;;11.60;99.90;;;;;;5070130;28;20028;-53
2023/09/30 03:49:45;;;;;;;11.00;3.07;;;11.60;99.90;;;;;;5078837;28;20102;-52
2023/09/30 03:52:11;;;;;;;8.23;3.37;;;11.60;99.90;;;;;;5079534;28;20508;-49
2023/09/30 03:54:37;;;;;;;8.67;3.37;;;11.60;99.90;;;;;;5078555;28;20123;-50
2023/09/30 03:57:03;;;;;;;8.27;3.60;;;11.70;99.90;;;;;;5080922;28;20130;-49
2023/09/30 03:59:30;;;;;;;11.20;3.90;;;11.70;99.90;;;;;;5059486;28;20555;-53
2023/09/30 04:01:57;;;;;;;8.77;3.47;;;11.70;99.90;;;;;;5077270;28;20386;-52
2023/09/30 04:04:23;;;;;;;10.57;3.27;;;11.70;99.90;;;;;;5077659;28;20554;-52
2023/09/30 04:06:51;;;;;;;8.90;3.67;;;11.70;99.90;;;;;;5080308;28;20111;-50
2023/09/30 04:09:17;;;;;;;13.20;3.80;;;11.70;99.90;;;;;;5078408;28;20208;-49
2023/09/30 04:11:42;;;;;;;9.33;3.40;;;11.70;99.90;;;;;;5079051;28;20508;-52
2023/09/30 04:14:09;;;;;;;12.13;3.90;;;11.80;99.90;;;;;;5079228;28;20430;-51
2023/09/30 04:16:37;;;;;;;10.60;3.33;;;11.70;99.90;;;;;;5077315;28;20109;-52
2023/09/30 04:19:03;;;;;;;12.73;3.97;;;11.70;99.90;;;;;;5073368;28;20173;-53
2023/09/30 04:21:30;;;;;;;11.57;3.77;;;11.70;99.90;;;;;;5076833;28;20111;-52
2023/09/30 04:23:55;;;;;;;12.03;3.53;;;11.70;99.90;;;;;;5079766;28;20031;-53
2023/09/30 04:26:22;;;;;;;11.97;3.50;;;11.70;99.90;;;;;;5076707;28;20028;-51
2023/09/30 04:28:47;;;;;;;9.50;3.77;;;11.60;99.90;;;;;;5077773;28;20017;-49
2023/09/30 04:31:13;;;;;;;12.23;4.30;;;11.60;99.90;;;;;;5077768;28;20395;-49
2023/09/30 04:33:39;;;;;;;12.67;3.47;;;11.60;99.90;;;;;;5073597;28;20029;-49
2023/09/30 04:36:08;;;;;;;12.47;3.87;;;11.60;99.90;;;;;;5078996;28;20032;-51
2023/09/30 04:38:35;;;;;;;;;;;11.60;99.90;;;;;;5076560;28;20472;-50
2023/09/30 04:41:00;;;;;;;11.00;4.07;;;11.50;99.90;;;;;;5075965;28;19962;-51
2023/09/30 04:43:29;;;;;;;12.73;4.03;;;11.60;99.90;;;;;;5075847;28;20025;-51
2023/09/30 04:45:56;;;;;;;11.60;4.43;;;11.70;99.90;;;;;;5075710;28;20025;-49
2023/09/30 04:48:23;;;;;;;14.90;3.73;;;11.60;99.90;;;;;;5072819;28;20493;-49
2023/09/30 04:50:50;;;;;;;10.70;3.57;;;11.70;99.90;;;;;;5077264;28;20377;-51
2023/09/30 04:53:17;;;;;;;9.43;4.00;;;11.70;99.90;;;;;;5076748;28;20035;-49
2023/09/30 04:55:43;;;;;;;9.60;3.70;;;11.70;99.90;;;;;;5073643;28;20103;-50
2023/09/30 04:58:09;;;;;;;14.30;3.60;;;11.70;99.90;;;;;;5077146;28;20047;-52
2023/09/30 05:00:34;;;;;;;10.00;3.77;;;11.70;99.90;;;;;;5071840;28;20469;-51
2023/09/30 05:03:00;;;;;;;15.10;4.80;;;11.70;99.90;;;;;;5077750;28;20032;-50
2023/09/30 05:05:26;;;;;;;12.27;5.57;;;11.70;99.90;;;;;;5075385;28;20025;-53
2023/09/30 05:07:52;;;;;;;12.00;4.60;;;11.70;99.90;;;;;;5076877;28;20041;-49
2023/09/30 05:10:19;;;;;;;10.97;4.10;;;11.70;99.90;;;;;;5075299;28;20136;-49
2023/09/30 05:12:48;;;;;;;11.03;3.67;;;11.70;99.90;;;;;;5073989;28;20515;-51
2023/09/30 05:15:15;;;;;;;11.88;3.85;;;11.70;99.90;;;;;;5074353;28;20027;-49
2023/09/30 05:17:43;;;;;;;10.80;3.47;;;11.60;99.90;;;;;;5074393;28;20028;-50
2023/09/30 05:20:12;;;;;;;13.13;3.93;;;11.60;99.90;;;;;;5055843;28;20445;-50
2023/09/30 05:22:39;;;;;;;11.00;4.23;;;11.50;99.90;;;;;;5074574;28;20040;-49
2023/09/30 05:25:04;;;;;;;15.70;4.47;;;11.50;99.90;;;;;;5081040;28;20032;-52
2023/09/30 05:27:30;;;;;;;10.57;3.77;;;11.50;99.90;;;;;;5085110;28;20507;-49
2023/09/30 05:29:56;;;;;;;11.97;4.07;;;11.50;99.90;;;;;;5082791;28;20390;-52
2023/09/30 05:32:22;;;;;;;12.80;4.53;;;11.50;99.90;;;;;;5066670;28;20028;-52
2023/09/30 05:34:48;;;;;;;13.67;4.23;;;11.50;99.90;;;;;;5084185;28;20107;-51
2023/09/30 05:37:14;;;;;;;13.60;3.83;;;11.50;99.90;;;;;;5083998;28;20107;-49
2023/09/30 05:39:40;;;;;;;13.30;4.10;;;11.40;99.90;;;;;;5086967;28;20024;-49
2023/09/30 05:42:06;;;;;;;11.37;4.23;;;11.40;99.90;;;;;;5083036;28;20082;-49
2023/09/30 05:44:32;;;;;;;14.30;4.43;;;11.40;99.90;;;;;;5069619;28;20108;-50
2023/09/30 05:46:59;;;;;;;11.50;4.30;;;11.40;99.90;;;;;;5075150;28;20028;-50
2023/09/30 05:49:25;;;;;;;12.90;4.60;;;11.40;99.90;;;;;;5072847;28;20028;-49
2023/09/30 05:51:51;;;;;;;13.63;4.07;;;11.40;99.90;;;;;;5074217;28;20035;-49
2023/09/30 05:54:17;;;;;;;13.43;4.23;;;11.40;99.90;;;;;;5081067;28;20024;-53
2023/09/30 05:56:43;;;;;;;14.13;4.20;;;11.40;99.90;;;;;;5085166;28;20051;-51
2023/09/30 05:59:09;;;;;;;10.63;4.20;;;11.40;99.90;;;;;;5070378;28;20046;-49
2023/09/30 06:01:35;;;;;;;11.97;4.20;;;11.50;99.90;;;;;;5070890;28;20479;-49
2023/09/30 06:04:02;;;;;;;13.67;5.57;;;11.50;99.90;;;;;;5074509;28;20433;-52
2023/09/30 06:06:30;;;;;;;11.97;4.10;;;11.50;99.90;;;;;;5072753;28;20389;-50
2023/09/30 06:09:00;;;;;;;19.13;5.47;;;11.50;99.90;;;;;;5074163;28;20033;-49
2023/09/30 06:11:28;;;;;;;13.70;4.55;;;11.50;99.90;;;;;;5071902;28;20024;-50
2023/09/30 06:13:54;;;;;;;13.93;5.43;;;11.50;99.90;;;;;;5077653;28;20025;-51
2023/09/30 06:16:20;;;;;;;15.57;4.83;;;11.50;99.90;;;;;;5075011;28;20484;-52
2023/09/30 06:18:46;;;;;;;13.47;4.63;;;11.60;99.90;;;;;;5057730;28;20035;-54
2023/09/30 06:21:14;;;;;;;14.73;4.20;;;11.60;99.90;;;;;;5074452;28;20024;-51
2023/09/30 06:23:40;;;;;;;17.00;4.67;;;11.60;99.90;;;;;;5072590;28;20025;-51
2023/09/30 06:26:06;;;;;;;14.53;5.37;;;11.60;99.90;;;;;;5077852;28;20425;-52
2023/09/30 06:28:33;;;;;;;13.33;4.07;;;11.70;99.90;;;;;;5075724;28;20202;-48
2023/09/30 06:30:59;;;;;;;12.50;4.73;;;11.70;99.90;;;;;;5075927;28;20052;-49
2023/09/30 06:33:29;;;;;;;13.23;4.50;;;11.70;99.90;;;;;;5058258;28;20028;-51
2023/09/30 06:35:54;;;;;;;;;;;11.80;99.90;;;;;;5078793;28;20055;-51
2023/09/30 06:38:21;;;;;;;16.17;4.53;;;11.90;99.90;;;;;;5093657;28;19912;-50
2023/09/30 06:40:47;;;;;;;13.80;4.77;;;11.90;99.90;;;;;;5093897;28;20039;-53
2023/09/30 06:43:16;;;;;;;15.70;5.17;;;11.90;99.90;;;;;;5094345;28;20032;-50
2023/09/30 06:45:43;;;;;;;13.40;4.65;;;11.90;99.90;;;;;;5094413;28;20024;-53
2023/09/30 06:48:12;;;;;;;13.47;5.20;;;12.00;99.90;;;;;;5094250;28;20024;-51
2023/09/30 06:50:49;;;;;;;12.45;4.80;;;12.00;99.90;;;;;;5075563;28;20066;-51
2023/09/30 06:53:19;;;;;;;14.77;4.40;;;12.10;99.90;;;;;;5094444;28;20068;-50
2023/09/30 06:55:45;;;;;;;14.00;5.13;;;12.20;99.90;;;;;;5094268;28;20294;-54
2023/09/30 06:58:11;;;;;;;14.07;5.93;;;12.20;99.90;;;;;;5094183;28;20066;-53
2023/09/30 07:00:37;;;;;;;13.80;5.37;;;12.20;99.90;;;;;;5093757;28;20047;-49
2023/09/30 07:03:04;;;;;;;12.50;4.67;;;12.30;99.90;;;;;;5094210;28;20024;-52
2023/09/30 07:05:30;;;;;;;16.03;4.70;;;12.30;99.90;;;;;;5094147;28;20036;-52
2023/09/30 07:07:55;;;;;;;14.90;5.43;;;12.40;99.90;;;;;;5094228;28;20030;-53
2023/09/30 07:10:21;;;;;;;13.70;5.85;;;12.50;99.90;;;;;;5094038;28;20032;-54
2023/09/30 07:12:47;;;;;;;17.23;5.38;;;12.60;99.90;;;;;;5075744;28;20488;-54
2023/09/30 07:15:13;;;;;;;15.63;5.57;;;12.70;99.90;;;;;;5094117;28;20023;-51
2023/09/30 07:17:40;;;;;;;12.50;5.07;;;12.80;99.90;;;;;;5093678;28;20115;-53
2023/09/30 07:20:06;;;;;;;16.23;5.45;;;12.90;99.90;;;;;;5093530;28;20050;-53
2023/09/30 07:22:33;;;;;;;12.88;5.53;;;12.90;99.90;;;;;;5093020;28;20064;-53
2023/09/30 07:24:59;;;;;;;14.90;5.80;;;12.90;99.90;;;;;;5075106;28;20032;-51
2023/09/30 07:27:25;;;;;;;16.17;5.85;;;13.10;99.90;;;;;;5093730;28;20031;-51
2023/09/30 07:29:50;;;;;;;16.50;6.43;;;13.20;99.90;;;;;;5093318;28;20035;-51
2023/09/30 07:32:16;;;;;;;13.18;5.43;;;13.40;99.90;;;;;;5093234;28;20424;-50
2023/09/30 07:34:42;;;;;;;17.60;6.50;;;13.50;99.90;;;;;;5093345;28;20069;-51
2023/09/30 07:37:08;;;;;;;15.90;6.55;;;13.60;99.90;;;;;;5093487;28;20369;-50
2023/09/30 07:39:35;;;;;;;17.30;6.75;;;13.70;99.90;;;;;;5093214;28;20138;-53
2023/09/30 07:42:00;;;;;;;14.00;5.72;;;13.70;99.90;;;;;;5093139;28;20486;-53
2023/09/30 07:44:26;;;;;;;15.93;6.10;;;13.90;99.90;;;;;;5093283;28;20028;-53
2023/09/30 07:46:53;;;;;;;15.68;6.20;;;13.90;99.90;;;;;;5093469;28;20028;-50
2023/09/30 07:49:18;;;;;;;17.20;6.82;;;13.90;99.90;;;;;;5092897;28;20028;-50
2023/09/30 07:51:46;;;;;;;17.77;6.45;;;14.00;99.90;;;;;;5093010;28;20155;-51
2023/09/30 07:54:12;;;;;;;15.32;7.05;;;14.10;99.90;;;;;;5093382;28;20230;-50
2023/09/30 07:56:38;;;;;;;18.27;6.53;;;14.30;99.90;;;;;;5093712;28;20044;-51
2023/09/30 07:59:04;;;;;;;20.60;7.70;;;14.40;99.90;;;;;;5092839;28;20039;-49
2023/09/30 08:01:31;;;;;;;24.00;9.02;;;14.50;99.90;;;;;;5092675;28;20024;-51
2023/09/30 08:03:57;;;;;;;34.03;17.17;;;14.60;99.90;;;;;;5092815;28;20106;-51
2023/09/30 08:06:23;;;;;;;17.63;7.65;;;14.60;99.90;;;;;;5093025;28;20060;-53
2023/09/30 08:08:49;;;;;;;17.30;6.47;;;14.80;99.90;;;;;;5092527;28;20081;-51
2023/09/30 08:11:15;;;;;;;11.65;6.15;;;14.80;99.90;;;;;;5092717;28;20039;-50
2023/09/30 08:13:40;;;;;;;20.98;7.13;;;14.90;99.90;;;;;;5074663;28;20031;-50
2023/09/30 08:16:07;;;;;;;17.65;6.95;;;14.90;99.90;;;;;;5092937;28;20065;-54
2023/09/30 08:18:32;;;;;;;15.60;6.75;;;15.00;99.90;;;;;;5092467;28;20028;-52
2023/09/30 08:20:58;;;;;;;14.75;6.82;;;15.20;99.90;;;;;;5092482;28;20020;-53
2023/09/30 08:23:24;;;;;;;18.48;6.72;;;15.20;99.90;;;;;;5092640;28;20032;-52
2023/09/30 08:25:49;;;;;;;16.67;7.05;;;15.30;99.90;;;;;;5092550;28;20031;-54
2023/09/30 08:28:15;;;;;;;13.80;6.68;;;15.40;99.90;;;;;;5092441;28;20123;-54
2023/09/30 08:30:40;;;;;;;18.27;7.20;;;15.50;99.90;;;;;;5091954;28;20032;-50
2023/09/30 08:33:07;;;;;;;20.33;7.57;;;15.50;99.90;;;;;;5092267;28;20032;-50
2023/09/30 08:35:37;;;;;;;17.90;7.32;;;15.60;99.90;;;;;;5091717;28;20431;-50
2023/09/30 08:38:03;;;;;;;16.70;7.18;;;15.60;99.90;;;;;;5092337;28;20032;-51
2023/09/30 08:40:29;;;;;;;26.58;10.23;;;15.70;99.90;;;;;;5091853;28;20052;-50
2023/09/30 08:42:55;;;;;;;18.20;7.70;;;15.90;99.90;;;;;;5092630;28;20432;-51
2023/09/30 08:45:21;;;;;;;22.05;7.15;;;16.00;99.90;;;;;;5092037;28;20431;-49
2023/09/30 08:47:47;;;;;;;16.63;7.30;;;16.10;99.90;;;;;;5091891;28;20472;-53
2023/09/30 08:50:13;;;;;;;16.92;7.57;;;16.20;99.90;;;;;;5091790;28;20039;-52
2023/09/30 08:52:44;;;;;;;16.00;6.85;;;16.30;99.90;;;;;;5091782;28;20032;-50
2023/09/30 08:55:11;;;;;;;16.58;6.85;;;16.30;99.90;;;;;;5092342;28;20032;-51
2023/09/30 08:57:41;;;;;;;15.52;5.97;;;16.40;99.90;;;;;;5091693;28;20028;-53
2023/09/30 09:00:11;;;;;;;15.90;6.40;;;16.50;99.90;;;;;;5091604;28;20035;-49
2023/09/30 09:02:38;;;;;;;14.40;6.22;;;16.60;99.90;;;;;;5091419;28;20028;-50
2023/09/30 09:05:04;;;;;;;17.58;7.03;;;16.70;99.90;;;;;;5091904;28;20028;-52
2023/09/30 09:07:33;;;;;;;13.38;6.40;;;16.90;99.90;;;;;;5091670;28;20024;-49
2023/09/30 09:10:10;;;;;;;14.75;6.88;;;17.10;99.90;;;;;;5092022;28;20024;-50
2023/09/30 09:12:38;;;;;;;13.50;5.05;;;17.20;99.90;;;;;;5091395;28;20036;-51
2023/09/30 09:15:06;;;;;;;11.35;4.90;;;17.30;99.90;;;;;;5091741;28;20434;-50
2023/09/30 09:17:43;;;;;;;14.23;6.13;;;17.40;99.90;;;;;;5091529;28;20039;-51
2023/09/30 09:20:30;;;;;;;12.00;5.22;;;17.40;99.90;;;;;;5091598;28;20040;-51
2023/09/30 09:22:58;;;;;;;14.82;5.65;;;17.50;99.90;;;;;;5090708;28;20036;-52
2023/09/30 09:25:24;;;;;;;12.43;5.07;;;17.70;99.90;;;;;;5091406;28;20508;-50
2023/09/30 09:27:50;;;;;;;10.18;5.10;;;17.90;99.90;;;;;;5091141;28;20064;-50
2023/09/30 09:30:21;;;;;;;11.25;4.78;;;18.00;99.90;;;;;;5091039;28;20427;-51
2023/09/30 09:33:05;;;;;;;11.73;4.72;;;18.20;99.90;;;;;;5090850;28;20032;-50
2023/09/30 09:35:33;;;;;;;11.25;4.80;;;18.30;99.90;;;;;;5091018;28;20035;-50
2023/09/30 09:38:03;;;;;;;15.45;5.07;;;18.50;99.90;;;;;;5090900;28;20028;-51
2023/09/30 09:40:33;;;;;;;11.00;4.63;;;18.50;99.90;;;;;;5090485;28;20101;-51
2023/09/30 09:43:02;;;;;;;9.50;3.72;;;18.70;99.90;;;;;;5090924;28;20020;-52
2023/09/30 09:45:30;;;;;;;9.98;3.75;;;19.00;99.90;;;;;;5073274;28;20036;-53
2023/09/30 09:47:57;;;;;;;11.80;4.53;;;19.30;99.90;;;;;;5090685;28;20337;-50
2023/09/30 09:50:23;;;;;;;8.30;4.07;;;19.60;99.90;;;;;;5090663;28;20032;-53
2023/09/30 09:52:51;;;;;;;11.13;3.58;;;19.80;99.90;;;;;;5090933;28;20027;-51
2023/09/30 09:55:18;;;;;;;8.00;3.42;;;20.00;99.90;;;;;;5072841;28;20043;-53
2023/09/30 09:57:45;;;;;;;6.70;3.05;;;20.00;99.90;;;;;;5090757;28;20365;-53
2023/09/30 10:00:16;;;;;;;10.18;3.67;;;20.10;99.90;;;;;;5091346;28;20040;-53
2023/09/30 10:02:42;;;;;;;8.80;3.42;;;20.20;99.90;;;;;;5091058;28;20036;-53
2023/09/30 10:05:09;;;;;;;6.95;3.17;;;20.20;99.90;;;;;;5091470;28;20082;-53
2023/09/30 10:07:39;;;;;;;6.22;3.30;;;20.00;99.90;;;;;;5090913;28;20024;-51
2023/09/30 10:10:10;;;;;;;8.98;3.22;;;19.80;99.90;;;;;;5090809;28;20032;-50
2023/09/30 10:12:39;;;;;;;6.63;2.70;;;19.90;99.90;;;;;;5090810;28;20065;-50
2023/09/30 10:15:23;;;;;;;12.18;4.30;;;19.90;99.90;;;;;;5073071;28;20028;-53
2023/09/30 10:18:12;;;;;;;12.75;4.32;;;20.00;99.90;;;;;;5090708;28;20090;-53
2023/09/30 10:20:44;;;;;;;9.75;3.70;;;19.90;99.90;;;;;;5090517;28;20047;-54
2023/09/30 10:23:33;;;;;;;12.60;4.47;;;19.80;99.90;;;;;;5090692;28;20495;-51
2023/09/30 10:26:13;;;;;;;11.60;4.18;;;20.20;99.90;;;;;;5091110;28;20039;-49
2023/09/30 10:28:49;;;;;;;11.68;4.60;;;20.60;99.90;;;;;;5090169;28;20062;-51
2023/09/30 10:31:19;;;;;;;10.82;3.75;;;20.30;99.90;;;;;;5090357;28;20078;-53
2023/09/30 10:33:59;;;;;;;8.27;3.60;;;20.00;99.90;;;;;;5090620;28;20016;-51
2023/09/30 10:36:30;;;;;;;8.63;3.17;;;19.70;99.90;;;;;;5072511;28;20051;-52
2023/09/30 10:38:55;;;;;;;8.73;3.10;;;19.60;99.90;;;;;;5090153;28;20040;-54
2023/09/30 10:41:45;;;;;;;5.90;2.65;;;19.70;99.90;;;;;;5090348;28;20076;-54
2023/09/30 10:44:26;;;;;;;8.63;3.10;;;19.80;99.90;;;;;;5090537;28;20123;-51
2023/09/30 10:46:59;;;;;;;7.85;2.75;;;20.00;99.90;;;;;;5090443;28;20028;-50
2023/09/30 10:49:25;;;;;;;7.90;2.75;;;20.00;99.90;;;;;;5090097;28;20036;-52
2023/09/30 10:51:52;;;;;;;8.18;2.28;;;19.60;99.90;;;;;;5090193;28;20028;-52
2023/09/30 10:54:25;;;;;;;23.85;10.80;;;19.30;99.90;;;;;;5090223;28;20081;-51
2023/09/30 10:56:52;;;;;;;21.48;10.93;;;19.20;99.90;;;;;;5090413;28;20473;-52
2023/09/30 10:59:25;;;;;;;14.77;7.38;;;19.10;99.90;;;;;;5092603;28;20058;-50
2023/09/30 11:01:51;;;;;;;10.75;4.40;;;19.20;99.90;;;;;;5094033;28;20491;-50
2023/09/30 11:04:18;;;;;;;8.90;3.03;;;19.10;99.90;;;;;;5094671;28;20028;-52
2023/09/30 11:06:44;;;;;;;10.10;3.25;;;19.00;99.90;;;;;;5094231;28;20056;-49
2023/09/30 11:09:16;;;;;;;10.93;3.70;;;19.00;99.90;;;;;;5094047;28;20550;-49
2023/09/30 11:11:50;;;;;;;6.78;3.08;;;19.20;99.90;;;;;;5094202;28;20040;-53
2023/09/30 11:14:29;;;;;;;7.53;2.53;;;19.40;99.90;;;;;;5094156;28;20115;-53
2023/09/30 11:16:57;;;;;;;8.07;2.65;;;19.40;99.90;;;;;;5094128;28;20247;-52
2023/09/30 11:19:23;;;;;;;6.85;3.42;;;19.40;99.90;;;;;;5093388;28;20044;-50
2023/09/30 11:21:54;;;;;;;7.22;3.20;;;19.60;99.90;;;;;;5093659;28;20031;-51
2023/09/30 11:24:21;;;;;;;8.27;2.80;;;19.80;99.90;;;;;;5093652;28;20028;-51
2023/09/30 11:26:47;;;;;;;4.78;2.28;;;19.90;99.90;;;;;;5093699;28;20067;-51
2023/09/30 11:29:16;;;;;;;6.35;1.73;;;19.90;99.90;;;;;;5093321;28;20051;-53
2023/09/30 11:31:47;;;;;;;5.38;1.80;;;19.80;99.90;;;;;;5093492;28;20107;-53
2023/09/30 11:34:15;;;;;;;6.50;1.85;;;19.90;99.90;;;;;;5093540;28;20123;-53
2023/09/30 11:36:47;;;;;;;7.25;2.03;;;20.10;99.90;;;;;;5093586;28;20043;-53
2023/09/30 11:39:28;;;;;;;5.57;2.97;;;20.10;99.90;;;;;;5074990;28;20028;-51
2023/09/30 11:41:56;;;;;;;5.30;1.90;;;20.00;99.90;;;;;;5093252;28;20107;-54
2023/09/30 11:44:22;;;;;;;5.20;2.03;;;20.00;99.90;;;;;;5093412;28;20562;-53
2023/09/30 11:46:53;;;;;;;10.35;2.67;;;20.00;99.90;;;;;;5093548;28;20028;-52
2023/09/30 11:49:28;;;;;;;6.85;2.55;;;20.10;99.90;;;;;;5093216;28;20036;-50
2023/09/30 11:51:58;;;;;;;7.70;2.85;;;20.30;99.90;;;;;;5093142;28;20039;-50
2023/09/30 11:54:45;;;;;;;6.05;2.38;;;20.40;99.90;;;;;;5093324;28;20024;-50
2023/09/30 11:57:18;;;;;;;6.90;2.30;;;20.50;99.90;;;;;;5093079;28;20034;-52
2023/09/30 11:59:47;;;;;;;5.65;2.10;;;20.30;99.90;;;;;;5092938;28;20040;-50
2023/09/30 12:02:14;;;;;;;11.15;2.72;;;20.20;99.90;;;;;;5092730;28;20080;-51
2023/09/30 12:04:42;;;;;;;7.40;2.40;;;20.10;99.90;;;;;;5093304;28;20035;-53
2023/09/30 12:07:08;;;;;;;7.97;2.67;;;20.10;99.90;;;;;;5092723;28;20122;-54
2023/09/30 12:09:36;;;;;;;5.45;2.22;;;20.20;99.90;;;;;;5092428;28;20065;-50
2023/09/30 12:12:03;;;;;;;5.53;2.40;;;20.30;99.90;;;;;;5092518;28;20028;-51
2023/09/30 12:14:31;;;;;;;5.45;1.98;;;20.40;99.90;;;;;;5092694;28;20089;-50
2023/09/30 12:16:57;;;;;;;8.63;2.50;;;20.30;99.90;;;;;;5074642;28;20031;-51
2023/09/30 12:19:22;;;;;;;7.25;2.63;;;20.20;99.90;;;;;;5092150;28;20067;-51
2023/09/30 12:21:48;;;;;;;6.47;2.40;;;20.10;99.90;;;;;;5092256;28;20070;-50
2023/09/30 12:24:21;;;;;;;5.70;2.22;;;19.90;99.90;;;;;;5092429;28;20099;-50
2023/09/30 12:26:48;;;;;;;7.90;2.58;;;20.10;99.90;;;;;;5074689;28;20472;-51
2023/09/30 12:29:21;;;;;;;9.45;2.42;;;20.20;99.90;;;;;;5092089;28;20043;-50
2023/09/30 12:31:48;;;;;;;7.10;2.10;;;20.60;99.90;;;;;;5092406;28;20040;-49
2023/09/30 12:34:14;;;;;;;7.13;2.33;;;20.40;99.90;;;;;;5093030;28;20035;-50
2023/09/30 12:36:41;;;;;;;6.38;2.30;;;20.20;99.90;;;;;;5092642;28;20036;-53
2023/09/30 12:39:10;;;;;;;6.32;2.50;;;20.00;99.90;;;;;;5092288;28;20039;-53
2023/09/30 12:41:40;;;;;;;;;;;20.00;99.90;;;;;;5092774;28;20103;-51
2023/09/30 12:44:06;;;;;;;7.38;2.42;;;20.00;99.90;;;;;;5092346;28;19962;-53